Time;durP1;ratioP1;P1;durP2;ratioP2;P2;SDS_P1;SDS_P2;PMS_P1;PMS_P2;Temp;Humidity;BMP_temperature;BMP_pressure;BME280_temperature;BME280_humidity;BME280_pressure;Samples;Min_cycle;Max_cycle;Signal;HPM_P1;HPM_P2
2020/12/15 00:01:57;;;;;;;17.00;10.20;;;9.80;99.90;;;;;;5032206;28;20042;-37
2020/12/15 00:04:23;;;;;;;15.55;8.85;;;9.90;99.90;;;;;;5033066;28;20068;-36
2020/12/15 00:06:49;;;;;;;17.17;8.60;;;9.90;99.90;;;;;;5033200;28;20061;-37
2020/12/15 00:09:15;;;;;;;16.95;8.95;;;9.90;99.90;;;;;;5032839;28;20446;-36
2020/12/15 00:11:41;;;;;;;16.25;9.15;;;9.80;99.90;;;;;;5030433;28;20079;-37
2020/12/15 00:14:06;;;;;;;15.13;8.20;;;9.80;99.90;;;;;;5033426;28;20108;-37
2020/12/15 00:16:32;;;;;;;14.73;9.20;;;9.80;99.90;;;;;;5031968;28;20093;-37
2020/12/15 00:18:58;;;;;;;16.15;7.97;;;9.80;99.90;;;;;;5033939;28;20041;-36
2020/12/15 00:21:26;;;;;;;15.60;9.93;;;9.80;99.90;;;;;;5014796;28;20100;-36
2020/12/15 00:23:53;;;;;;;19.38;8.35;;;9.80;99.90;;;;;;5032828;28;20093;-37
2020/12/15 00:26:20;;;;;;;16.77;8.48;;;9.80;99.90;;;;;;5033468;28;20034;-37
2020/12/15 00:28:48;;;;;;;17.92;9.35;;;9.80;99.90;;;;;;5031125;28;20029;-36
2020/12/15 00:31:15;;;;;;;16.05;9.27;;;9.80;99.90;;;;;;5030303;28;20087;-37
2020/12/15 00:33:41;;;;;;;15.80;9.65;;;9.70;99.90;;;;;;5031357;28;20038;-37
2020/12/15 00:36:07;;;;;;;17.35;10.52;;;9.70;99.90;;;;;;5032314;28;20087;-37
2020/12/15 00:38:32;;;;;;;18.25;10.30;;;9.70;99.90;;;;;;5015747;28;20034;-37
2020/12/15 00:40:58;;;;;;;17.05;9.55;;;9.70;99.90;;;;;;5015650;28;20038;-37
2020/12/15 00:43:24;;;;;;;18.02;9.93;;;9.70;99.90;;;;;;5033354;28;20032;-37
2020/12/15 00:45:49;;;;;;;17.63;9.00;;;9.70;99.90;;;;;;5011492;28;20040;-37
2020/12/15 00:48:15;;;;;;;18.50;10.52;;;9.70;99.90;;;;;;5030409;28;20652;-36
2020/12/15 00:50:40;;;;;;;19.48;11.27;;;9.70;99.90;;;;;;5030501;28;20500;-36
2020/12/15 00:53:06;;;;;;;23.50;12.48;;;9.60;99.90;;;;;;5033265;28;20072;-38
2020/12/15 00:55:32;;;;;;;21.60;11.90;;;9.60;99.90;;;;;;5031102;28;20401;-37
2020/12/15 00:57:58;;;;;;;22.63;13.02;;;9.50;99.90;;;;;;5032686;28;20047;-36
2020/12/15 01:00:24;;;;;;;21.67;13.30;;;9.50;99.90;;;;;;5032847;28;20394;-37
2020/12/15 01:02:49;;;;;;;24.98;12.57;;;9.50;99.90;;;;;;5031444;28;20045;-37
2020/12/15 01:05:15;;;;;;;19.40;11.95;;;9.50;99.90;;;;;;5031380;28;20076;-38
2020/12/15 01:07:40;;;;;;;22.50;12.40;;;9.50;99.90;;;;;;5016441;28;20062;-36
2020/12/15 01:10:06;;;;;;;23.92;12.63;;;9.50;99.90;;;;;;5032713;28;20033;-37
2020/12/15 01:12:32;;;;;;;23.67;13.63;;;9.50;99.90;;;;;;5014879;28;20065;-37
2020/12/15 01:14:58;;;;;;;24.38;14.80;;;9.50;99.90;;;;;;5032583;28;20061;-37
2020/12/15 01:17:24;;;;;;;26.13;13.32;;;9.60;99.90;;;;;;5031520;28;20041;-37
2020/12/15 01:19:49;;;;;;;27.52;13.23;;;9.50;99.90;;;;;;5032874;28;20033;-37
2020/12/15 01:22:15;;;;;;;27.20;14.77;;;9.50;99.90;;;;;;5032435;28;20033;-37
2020/12/15 01:24:40;;;;;;;25.73;15.25;;;9.60;99.90;;;;;;5032493;28;20485;-36
2020/12/15 01:27:06;;;;;;;32.55;15.65;;;9.60;99.90;;;;;;5025347;28;20029;-37
2020/12/15 01:29:31;;;;;;;26.60;15.30;;;9.60;99.90;;;;;;5031089;28;20125;-37
2020/12/15 01:32:03;;;;;;;24.02;15.18;;;9.50;99.90;;;;;;5031470;28;20037;-37
2020/12/15 01:34:29;;;;;;;28.08;16.00;;;9.60;99.90;;;;;;5031196;28;20445;-36
2020/12/15 01:36:56;;;;;;;25.73;14.57;;;9.60;99.90;;;;;;5031538;28;20033;-36
2020/12/15 01:39:25;;;;;;;26.25;15.55;;;9.60;99.90;;;;;;5031493;28;20021;-37
2020/12/15 01:41:51;;;;;;;23.15;15.57;;;9.60;99.90;;;;;;5018996;28;20041;-36
2020/12/15 01:44:16;;;;;;;27.85;16.13;;;9.60;99.90;;;;;;5026987;28;20029;-36
2020/12/15 01:46:42;;;;;;;24.80;15.15;;;9.60;99.90;;;;;;5030249;28;20025;-36
2020/12/15 01:49:08;;;;;;;23.88;15.27;;;9.60;99.90;;;;;;5030097;28;20117;-37
2020/12/15 01:51:35;;;;;;;23.70;14.65;;;9.60;99.90;;;;;;5031293;28;20068;-36
2020/12/15 01:54:03;;;;;;;24.58;15.13;;;9.60;99.90;;;;;;5031084;28;20128;-38
2020/12/15 01:56:29;;;;;;;23.13;13.88;;;9.60;99.90;;;;;;5031770;28;20024;-37
2020/12/15 01:58:56;;;;;;;29.38;17.17;;;9.60;99.90;;;;;;5024816;28;20394;-36
2020/12/15 02:01:23;;;;;;;25.52;15.10;;;9.60;99.90;;;;;;5031150;28;20121;-37
2020/12/15 02:03:50;;;;;;;29.60;15.57;;;9.60;99.90;;;;;;5031428;28;20056;-36
2020/12/15 02:06:20;;;;;;;25.27;14.93;;;9.60;99.90;;;;;;5027649;28;20036;-36
2020/12/15 02:08:46;;;;;;;27.70;15.27;;;9.60;99.90;;;;;;5032520;28;20021;-36
2020/12/15 02:11:12;;;;;;;25.27;13.05;;;9.60;99.90;;;;;;5030224;28;20033;-37
2020/12/15 02:13:39;;;;;;;24.65;14.57;;;9.60;99.90;;;;;;5028885;28;20646;-36
2020/12/15 02:16:12;;;;;;;24.70;14.40;;;9.70;99.90;;;;;;5027812;28;20030;-37
2020/12/15 02:18:38;;;;;;;23.75;13.25;;;9.70;99.90;;;;;;5031082;28;20031;-36
2020/12/15 02:21:05;;;;;;;22.98;13.63;;;9.70;99.90;;;;;;5013293;28;20048;-37
2020/12/15 02:23:31;;;;;;;24.70;14.80;;;9.70;99.90;;;;;;5030133;28;20036;-36
2020/12/15 02:25:56;;;;;;;23.48;14.43;;;9.70;99.90;;;;;;5031614;28;20029;-36
2020/12/15 02:28:22;;;;;;;22.35;12.93;;;9.80;99.90;;;;;;5009809;28;20034;-37
2020/12/15 02:30:47;;;;;;;24.38;15.48;;;9.80;99.90;;;;;;5031429;28;20084;-36
2020/12/15 02:33:13;;;;;;;24.58;15.10;;;9.80;99.90;;;;;;5029111;28;20113;-37
2020/12/15 02:35:38;;;;;;;22.45;12.73;;;9.80;99.90;;;;;;5028198;28;20021;-37
2020/12/15 02:38:04;;;;;;;26.30;15.32;;;9.90;99.90;;;;;;5013445;28;20443;-36
2020/12/15 02:40:30;;;;;;;22.10;13.00;;;9.80;99.90;;;;;;5027664;28;20071;-37
2020/12/15 02:42:55;;;;;;;21.70;14.63;;;9.80;99.90;;;;;;5030941;28;20445;-37
2020/12/15 02:45:21;;;;;;;25.52;15.43;;;9.80;99.90;;;;;;5021946;28;20032;-36
2020/12/15 02:47:46;;;;;;;23.77;13.02;;;9.80;99.90;;;;;;5025281;28;20029;-36
2020/12/15 02:50:20;;;;;;;25.73;15.77;;;9.80;99.90;;;;;;5030459;28;20079;-37
2020/12/15 02:52:46;;;;;;;25.27;13.98;;;9.90;99.90;;;;;;5029041;28;20033;-37
2020/12/15 02:55:11;;;;;;;27.67;14.82;;;9.80;99.90;;;;;;5027662;28;20029;-36
2020/12/15 02:57:37;;;;;;;22.85;12.45;;;9.90;99.90;;;;;;5029399;28;20433;-36
2020/12/15 03:00:09;;;;;;;25.08;15.68;;;9.90;99.90;;;;;;5030479;28;20041;-36
2020/12/15 03:02:34;;;;;;;;;;;9.80;99.90;;;;;;5026161;28;20037;-37
2020/12/15 03:05:00;;;;;;;24.13;16.35;;;9.80;99.90;;;;;;5030170;28;19996;-36
2020/12/15 03:07:26;;;;;;;25.70;16.48;;;9.80;99.90;;;;;;5020117;28;20096;-37
2020/12/15 03:09:51;;;;;;;26.05;15.38;;;9.80;99.90;;;;;;5029839;28;20403;-37
2020/12/15 03:12:20;;;;;;;27.63;17.05;;;9.80;99.90;;;;;;5023806;28;20508;-37
2020/12/15 03:14:46;;;;;;;23.50;15.57;;;9.80;99.90;;;;;;5029987;28;20029;-37
2020/12/15 03:17:12;;;;;;;29.30;14.88;;;9.80;99.90;;;;;;5027671;28;20122;-38
2020/12/15 03:19:37;;;;;;;26.63;17.25;;;9.80;99.90;;;;;;5030148;28;20101;-37
2020/12/15 03:22:03;;;;;;;25.38;16.73;;;9.80;99.90;;;;;;5026223;28;20041;-39
2020/12/15 03:24:28;;;;;;;31.77;17.98;;;9.80;99.90;;;;;;5033828;28;20102;-37
2020/12/15 03:26:54;;;;;;;26.23;16.92;;;9.80;99.90;;;;;;5033898;28;20103;-37
2020/12/15 03:29:20;;;;;;;25.58;15.45;;;9.80;99.90;;;;;;5023704;28;20036;-37
2020/12/15 03:31:45;;;;;;;29.38;17.95;;;9.80;99.90;;;;;;5034053;28;20120;-39
2020/12/15 03:34:11;;;;;;;27.83;17.85;;;9.80;99.90;;;;;;5033703;28;20037;-39
2020/12/15 03:36:37;;;;;;;24.50;16.35;;;9.80;99.90;;;;;;5033409;28;20489;-37
2020/12/15 03:39:06;;;;;;;25.65;16.95;;;9.80;99.90;;;;;;5035255;28;20025;-38
2020/12/15 03:41:31;;;;;;;24.30;15.32;;;9.80;99.90;;;;;;5033242;28;20033;-38
2020/12/15 03:43:57;;;;;;;28.13;15.70;;;9.80;99.90;;;;;;5033232;28;20429;-39
2020/12/15 03:46:23;;;;;;;25.38;15.75;;;9.80;99.90;;;;;;5033770;28;20092;-39
2020/12/15 03:48:48;;;;;;;27.52;17.88;;;9.80;99.90;;;;;;5034442;28;20108;-38
2020/12/15 03:51:14;;;;;;;30.17;16.33;;;9.80;99.90;;;;;;5032951;28;20030;-37
2020/12/15 03:53:39;;;;;;;24.33;14.43;;;9.80;99.90;;;;;;5034195;28;20026;-38
2020/12/15 03:56:05;;;;;;;27.88;17.38;;;9.90;99.90;;;;;;5034674;28;20042;-37
2020/12/15 03:58:30;;;;;;;24.50;15.43;;;9.90;99.90;;;;;;5025088;28;20066;-38
2020/12/15 04:00:56;;;;;;;28.83;17.40;;;9.80;99.90;;;;;;5012048;28;20517;-38
2020/12/15 04:03:21;;;;;;;22.55;13.85;;;9.90;99.90;;;;;;5032347;28;20425;-38
2020/12/15 04:05:47;;;;;;;22.42;14.90;;;9.80;99.90;;;;;;5031441;28;20124;-36
2020/12/15 04:08:12;;;;;;;26.45;15.43;;;9.80;99.90;;;;;;5033358;28;20041;-38
2020/12/15 04:10:38;;;;;;;23.85;16.13;;;9.80;99.90;;;;;;5033915;28;20021;-37
2020/12/15 04:13:04;;;;;;;19.83;11.25;;;9.80;99.90;;;;;;5032991;28;20033;-38
2020/12/15 04:15:29;;;;;;;23.33;15.98;;;9.80;99.90;;;;;;5028665;28;20037;-37
2020/12/15 04:17:55;;;;;;;22.58;15.25;;;9.80;99.90;;;;;;5029137;28;20030;-37
2020/12/15 04:20:21;;;;;;;27.05;16.50;;;9.80;99.90;;;;;;5033783;28;20458;-37
2020/12/15 04:22:46;;;;;;;22.60;16.48;;;9.80;99.90;;;;;;5027323;28;20037;-37
2020/12/15 04:25:12;;;;;;;26.30;15.63;;;9.80;99.90;;;;;;5033164;28;20075;-39
2020/12/15 04:27:37;;;;;;;25.85;15.40;;;9.80;99.90;;;;;;5026871;28;20025;-38
2020/12/15 04:30:05;;;;;;;24.77;15.38;;;9.80;99.90;;;;;;5031784;28;20042;-35
2020/12/15 04:32:31;;;;;;;23.20;14.68;;;9.80;99.90;;;;;;5025792;28;20108;-37
2020/12/15 04:34:57;;;;;;;26.50;14.73;;;9.80;99.90;;;;;;5029767;28;20109;-37
2020/12/15 04:37:22;;;;;;;24.92;15.52;;;9.80;99.90;;;;;;5033006;28;20140;-37
2020/12/15 04:39:48;;;;;;;25.23;15.93;;;9.90;99.90;;;;;;5015383;28;20056;-37
2020/12/15 04:42:14;;;;;;;24.27;15.48;;;9.80;99.90;;;;;;5034314;28;20501;-37
2020/12/15 04:44:40;;;;;;;24.42;15.77;;;9.80;99.90;;;;;;5032476;28;20026;-37
2020/12/15 04:47:22;;;;;;;25.85;16.00;;;9.80;99.90;;;;;;5031715;28;20034;-38
2020/12/15 04:49:51;;;;;;;;;;;9.80;99.90;;;;;;5033517;28;20409;-37
2020/12/15 04:52:26;;;;;;;22.63;15.32;;;9.80;99.90;;;;;;5034164;28;19998;-38
2020/12/15 04:54:52;;;;;;;23.73;15.02;;;9.80;99.90;;;;;;5029660;28;20155;-37
2020/12/15 04:57:22;;;;;;;22.48;14.77;;;9.80;99.90;;;;;;5031592;28;20112;-37
2020/12/15 04:59:51;;;;;;;21.10;14.63;;;9.80;99.90;;;;;;5032206;28;20367;-37
2020/12/15 05:02:18;;;;;;;28.45;14.23;;;9.80;99.90;;;;;;4998163;28;20452;-38
2020/12/15 05:04:43;;;;;;;25.67;15.77;;;9.80;99.90;;;;;;5028958;28;20108;-37
2020/12/15 05:07:11;;;;;;;20.55;14.57;;;9.80;99.90;;;;;;5032459;28;20119;-37
2020/12/15 05:09:37;;;;;;;22.40;14.60;;;9.80;99.90;;;;;;5033521;28;20030;-37
2020/12/15 05:12:04;;;;;;;22.67;14.85;;;9.80;99.90;;;;;;5032296;28;20113;-37
2020/12/15 05:14:30;;;;;;;23.20;14.65;;;9.80;99.90;;;;;;5027618;28;20037;-37
2020/12/15 05:16:56;;;;;;;23.52;15.32;;;9.80;99.90;;;;;;5031574;28;20033;-39
2020/12/15 05:19:21;;;;;;;23.63;15.07;;;9.80;99.90;;;;;;5033482;28;20029;-39
2020/12/15 05:21:59;;;;;;;21.73;13.80;;;9.80;99.90;;;;;;5031921;28;20041;-38
2020/12/15 05:24:27;;;;;;;22.48;14.15;;;9.80;99.90;;;;;;5031644;28;20025;-37
2020/12/15 05:27:00;;;;;;;25.92;14.18;;;9.80;99.90;;;;;;5027155;28;20060;-37
2020/12/15 05:29:26;;;;;;;24.33;14.38;;;9.80;99.90;;;;;;5030869;28;20029;-37
2020/12/15 05:31:52;;;;;;;24.15;13.77;;;9.80;99.90;;;;;;5032090;28;20117;-38
2020/12/15 05:34:24;;;;;;;24.38;14.82;;;9.80;99.90;;;;;;5032347;28;20022;-37
2020/12/15 05:37:00;;;;;;;20.95;13.18;;;9.70;99.90;;;;;;5012930;28;20112;-40
2020/12/15 05:39:28;;;;;;;24.27;13.40;;;9.70;99.90;;;;;;5014594;28;20029;-37
2020/12/15 05:42:02;;;;;;;20.88;12.40;;;9.80;99.90;;;;;;5031765;28;20099;-37
2020/12/15 05:44:28;;;;;;;20.30;13.30;;;9.80;99.90;;;;;;5032198;28;20030;-37
2020/12/15 05:47:06;;;;;;;23.75;13.73;;;9.80;99.90;;;;;;5027180;28;20099;-37
2020/12/15 05:49:34;;;;;;;20.70;12.88;;;9.80;99.90;;;;;;5032352;28;20422;-37
2020/12/15 05:52:00;;;;;;;23.38;13.63;;;9.80;99.90;;;;;;5030811;28;20038;-37
2020/12/15 05:54:26;;;;;;;19.63;12.52;;;9.80;99.90;;;;;;5029305;28;20031;-37
2020/12/15 05:57:06;;;;;;;20.83;12.32;;;9.70;99.90;;;;;;5034993;28;20026;-37
2020/12/15 05:59:34;;;;;;;20.05;12.95;;;9.80;99.90;;;;;;5043840;28;20439;-37
2020/12/15 06:02:10;;;;;;;24.55;13.90;;;9.70;99.90;;;;;;5033844;28;20040;-38
2020/12/15 06:04:37;;;;;;;21.30;12.88;;;9.70;99.90;;;;;;5033006;28;20025;-37
2020/12/15 06:07:08;;;;;;;20.30;13.00;;;9.70;99.90;;;;;;5031608;28;20033;-37
2020/12/15 06:09:35;;;;;;;20.60;12.88;;;9.70;99.90;;;;;;5026787;28;20025;-37
2020/12/15 06:12:01;;;;;;;18.23;12.10;;;9.70;99.90;;;;;;5017701;28;20116;-39
2020/12/15 06:14:27;;;;;;;24.13;13.35;;;9.70;99.90;;;;;;5008785;28;20034;-37
2020/12/15 06:16:54;;;;;;;21.33;12.00;;;9.70;99.90;;;;;;5014249;28;20033;-38
2020/12/15 06:19:22;;;;;;;19.70;12.63;;;9.70;99.90;;;;;;5014478;28;20064;-38
2020/12/15 06:21:49;;;;;;;19.75;12.18;;;9.70;99.90;;;;;;5014943;28;20096;-37
2020/12/15 06:24:37;;;;;;;20.77;12.38;;;9.60;99.90;;;;;;5026740;28;20154;-37
2020/12/15 06:27:04;;;;;;;18.38;12.43;;;9.60;99.90;;;;;;5030368;28;20022;-37
2020/12/15 06:29:39;;;;;;;23.63;13.45;;;9.70;99.90;;;;;;5022956;28;20056;-37
2020/12/15 06:32:16;;;;;;;20.98;12.23;;;9.60;99.90;;;;;;5016962;28;20033;-37
2020/12/15 06:34:45;;;;;;;24.77;11.45;;;9.60;99.90;;;;;;5019340;28;20070;-37
2020/12/15 06:37:10;;;;;;;21.02;13.40;;;9.60;99.90;;;;;;5024971;28;20220;-37
2020/12/15 06:39:37;;;;;;;25.02;12.18;;;9.60;99.90;;;;;;5019552;28;20030;-38
2020/12/15 06:42:07;;;;;;;19.60;11.82;;;9.60;99.90;;;;;;5003765;28;20049;-37
2020/12/15 06:44:36;;;;;;;17.10;10.63;;;9.60;99.90;;;;;;5024314;28;20032;-38
2020/12/15 06:47:04;;;;;;;18.73;12.20;;;9.60;99.90;;;;;;5021498;28;20433;-37
2020/12/15 06:49:35;;;;;;;21.48;10.88;;;9.60;99.90;;;;;;5030778;28;20470;-37
2020/12/15 06:52:07;;;;;;;18.40;11.55;;;9.50;99.90;;;;;;5015704;28;20441;-37
2020/12/15 06:54:36;;;;;;;18.52;10.98;;;9.50;99.90;;;;;;5027556;28;20497;-39
2020/12/15 06:57:07;;;;;;;18.90;10.65;;;9.50;99.90;;;;;;5031003;28;20030;-37
2020/12/15 06:59:39;;;;;;;17.25;10.98;;;9.50;99.90;;;;;;5021921;28;20033;-37
2020/12/15 07:02:13;;;;;;;20.73;10.88;;;9.50;99.90;;;;;;5027689;28;20046;-38
2020/12/15 07:04:44;;;;;;;15.98;10.70;;;9.50;99.90;;;;;;5018111;28;20088;-36
2020/12/15 07:07:11;;;;;;;17.75;10.48;;;9.50;99.90;;;;;;5016189;28;20520;-37
2020/12/15 07:09:38;;;;;;;19.83;10.98;;;9.50;99.90;;;;;;5006513;28;20037;-37
2020/12/15 07:12:14;;;;;;;18.65;10.20;;;9.50;99.90;;;;;;5002347;28;20041;-36
2020/12/15 07:14:49;;;;;;;19.27;10.23;;;9.50;99.90;;;;;;5009644;28;20087;-37
2020/12/15 07:17:15;;;;;;;16.80;9.98;;;9.40;99.90;;;;;;5032308;28;20144;-37
2020/12/15 07:19:41;;;;;;;18.08;9.48;;;9.40;99.90;;;;;;5038860;28;20025;-38
2020/12/15 07:22:07;;;;;;;18.08;9.23;;;9.40;99.90;;;;;;5039374;28;20041;-38
2020/12/15 07:24:33;;;;;;;18.05;10.20;;;9.40;99.90;;;;;;5024540;28;20112;-37
2020/12/15 07:27:02;;;;;;;17.67;9.35;;;9.50;99.90;;;;;;5034263;28;20424;-37
2020/12/15 07:29:28;;;;;;;16.63;9.25;;;9.40;99.90;;;;;;5025882;28;20041;-38
2020/12/15 07:31:54;;;;;;;17.48;9.25;;;9.40;99.90;;;;;;5028050;28;20037;-40
2020/12/15 07:34:20;;;;;;;12.90;8.05;;;9.40;99.90;;;;;;5047534;28;20040;-38
2020/12/15 07:36:48;;;;;;;13.50;9.05;;;9.40;99.90;;;;;;5038769;28;20529;-37
2020/12/15 07:39:14;;;;;;;20.80;10.60;;;9.40;99.90;;;;;;5012912;28;20079;-37
2020/12/15 07:41:41;;;;;;;18.15;9.20;;;9.40;99.90;;;;;;5022601;28;20037;-37
2020/12/15 07:44:18;;;;;;;19.75;9.45;;;9.40;99.90;;;;;;5042236;28;20179;-38
2020/12/15 07:46:45;;;;;;;18.33;10.15;;;9.40;99.90;;;;;;5043090;28;20021;-37
2020/12/15 07:49:12;;;;;;;18.63;9.48;;;9.40;99.90;;;;;;5049189;28;20040;-37
2020/12/15 07:51:38;;;;;;;16.08;10.35;;;9.40;99.90;;;;;;5046746;28;20024;-37
2020/12/15 07:54:05;;;;;;;20.33;10.52;;;9.40;99.90;;;;;;5037876;28;20083;-37
2020/12/15 07:56:31;;;;;;;19.15;9.88;;;9.40;99.90;;;;;;5033500;28;20042;-39
2020/12/15 07:58:58;;;;;;;21.23;11.35;;;9.40;99.90;;;;;;5032343;28;20044;-38
2020/12/15 08:01:26;;;;;;;20.17;11.35;;;9.40;99.90;;;;;;5012649;28;20037;-38
2020/12/15 08:04:06;;;;;;;17.10;10.38;;;9.30;99.90;;;;;;5027660;28;20045;-38
2020/12/15 08:06:37;;;;;;;18.35;10.55;;;9.30;99.90;;;;;;5016217;28;20366;-38
2020/12/15 08:09:05;;;;;;;20.20;11.77;;;9.40;99.90;;;;;;5026492;28;20340;-36
2020/12/15 08:11:31;;;;;;;18.77;11.75;;;9.30;99.90;;;;;;5025663;28;20069;-38
2020/12/15 08:13:57;;;;;;;18.92;10.95;;;9.30;99.90;;;;;;5040303;28;20045;-37
2020/12/15 08:16:25;;;;;;;22.20;10.25;;;9.30;99.90;;;;;;5046529;28;20029;-38
2020/12/15 08:19:00;;;;;;;19.00;11.20;;;9.30;99.90;;;;;;5034825;28;20128;-38
2020/12/15 08:21:48;;;;;;;19.80;11.30;;;9.30;99.90;;;;;;5051887;28;20040;-37
2020/12/15 08:24:26;;;;;;;23.13;11.18;;;9.40;99.90;;;;;;5050740;28;20033;-37
2020/12/15 08:26:54;;;;;;;22.70;11.10;;;9.30;99.90;;;;;;5049044;28;20037;-38
2020/12/15 08:29:23;;;;;;;20.40;11.02;;;9.30;99.90;;;;;;5049215;28;20033;-37
2020/12/15 08:31:52;;;;;;;20.48;10.80;;;9.20;99.90;;;;;;5050625;28;20053;-37
2020/12/15 08:34:21;;;;;;;18.23;10.00;;;9.20;99.90;;;;;;5051736;28;20029;-37
2020/12/15 08:36:53;;;;;;;37.08;11.40;;;9.20;99.90;;;;;;5051343;28;20036;-37
2020/12/15 08:39:30;;;;;;;20.25;10.70;;;9.30;99.90;;;;;;5034270;28;20032;-37
2020/12/15 08:42:00;;;;;;;17.83;10.73;;;9.30;99.90;;;;;;5046094;28;20158;-37
2020/12/15 08:44:27;;;;;;;20.23;12.00;;;9.30;99.90;;;;;;5040167;28;20128;-38
2020/12/15 08:46:57;;;;;;;24.33;12.35;;;9.30;99.90;;;;;;5050422;28;20037;-37
2020/12/15 08:49:25;;;;;;;20.38;10.45;;;9.30;99.90;;;;;;5051528;28;20032;-37
2020/12/15 08:51:54;;;;;;;18.73;11.48;;;9.30;99.90;;;;;;5051704;28;20033;-37
2020/12/15 08:54:20;;;;;;;18.33;10.65;;;9.40;99.90;;;;;;5051099;28;20040;-37
2020/12/15 08:56:49;;;;;;;21.52;11.55;;;9.30;99.90;;;;;;5051960;28;20079;-38
2020/12/15 08:59:18;;;;;;;17.52;11.60;;;9.40;99.90;;;;;;5042538;28;20466;-38
2020/12/15 09:01:45;;;;;;;16.95;10.82;;;9.30;99.90;;;;;;5025845;28;20033;-37
2020/12/15 09:04:13;;;;;;;19.20;12.35;;;9.40;99.90;;;;;;5052355;28;20025;-36
2020/12/15 09:06:41;;;;;;;26.52;12.70;;;9.40;99.90;;;;;;5033933;28;20069;-37
2020/12/15 09:09:08;;;;;;;20.00;11.15;;;9.30;99.90;;;;;;5050767;28;20498;-37
2020/12/15 09:11:34;;;;;;;16.85;11.30;;;9.40;99.90;;;;;;5046418;28;20116;-37
2020/12/15 09:14:04;;;;;;;18.27;10.50;;;9.40;99.90;;;;;;5050832;28;20029;-37
2020/12/15 09:16:38;;;;;;;19.42;10.90;;;9.40;99.90;;;;;;5050969;28;20056;-37
2020/12/15 09:19:13;;;;;;;17.50;10.85;;;9.40;99.90;;;;;;5046402;28;20075;-37
2020/12/15 09:21:40;;;;;;;19.77;11.45;;;9.40;99.90;;;;;;5031767;28;20120;-38
2020/12/15 09:24:08;;;;;;;20.65;11.73;;;9.40;99.90;;;;;;5051377;28;20024;-36
2020/12/15 09:26:38;;;;;;;25.75;13.82;;;9.40;99.90;;;;;;5049988;28;20472;-37
2020/12/15 09:29:16;;;;;;;36.35;15.05;;;9.40;99.90;;;;;;5031873;28;20489;-37
2020/12/15 09:31:50;;;;;;;36.35;17.63;;;9.40;99.90;;;;;;5020049;28;20115;-37
2020/12/15 09:34:20;;;;;;;34.33;15.15;;;9.40;99.90;;;;;;5050816;28;20021;-37
2020/12/15 09:36:58;;;;;;;22.45;11.27;;;9.40;99.90;;;;;;5033159;28;20079;-37
2020/12/15 09:39:29;;;;;;;18.00;10.75;;;9.50;99.90;;;;;;5048705;28;20025;-37
2020/12/15 09:42:04;;;;;;;19.73;11.95;;;9.40;99.90;;;;;;5031240;28;20040;-37
2020/12/15 09:44:34;;;;;;;20.42;12.02;;;9.50;99.90;;;;;;5050346;28;20036;-36
2020/12/15 09:47:04;;;;;;;19.38;11.35;;;9.50;99.90;;;;;;5050214;28;20048;-37
2020/12/15 09:49:31;;;;;;;23.10;12.05;;;9.40;99.90;;;;;;5032283;28;20454;-37
2020/12/15 09:51:59;;;;;;;19.77;11.52;;;9.40;99.90;;;;;;5045524;28;20091;-37
2020/12/15 09:54:25;;;;;;;20.02;11.25;;;9.40;99.90;;;;;;5041833;28;20112;-38
2020/12/15 09:56:52;;;;;;;23.77;11.35;;;9.40;99.90;;;;;;5043679;28;20025;-38
2020/12/15 09:59:20;;;;;;;20.77;11.43;;;9.40;99.90;;;;;;5041057;28;20032;-41
2020/12/15 10:01:46;;;;;;;25.35;13.60;;;9.40;99.90;;;;;;5026454;28;20136;-36
2020/12/15 10:04:12;;;;;;;30.30;13.95;;;9.40;99.90;;;;;;5049456;28;20140;-39
2020/12/15 10:06:40;;;;;;;25.00;11.73;;;9.40;99.90;;;;;;5046055;28;20033;-38
2020/12/15 10:09:21;;;;;;;26.60;13.57;;;9.40;99.90;;;;;;5025502;28;20052;-38
2020/12/15 10:11:46;;;;;;;22.35;13.35;;;9.40;99.90;;;;;;5035473;28;20048;-38
2020/12/15 10:14:17;;;;;;;23.67;13.50;;;9.40;99.90;;;;;;5050198;28;20033;-39
2020/12/15 10:16:43;;;;;;;19.83;12.43;;;9.50;99.90;;;;;;5047919;28;20124;-37
2020/12/15 10:19:09;;;;;;;25.42;12.98;;;9.50;99.90;;;;;;5048667;28;20057;-38
2020/12/15 10:21:38;;;;;;;21.10;13.65;;;9.50;99.90;;;;;;5031682;28;20055;-37
2020/12/15 10:24:04;;;;;;;25.13;12.18;;;9.50;99.90;;;;;;5038401;28;20025;-41
2020/12/15 10:26:30;;;;;;;21.58;14.20;;;9.60;99.90;;;;;;5024012;28;20038;-38
2020/12/15 10:28:56;;;;;;;22.38;13.85;;;9.60;99.90;;;;;;5031572;28;20060;-40
2020/12/15 10:31:22;;;;;;;24.73;13.52;;;9.60;99.90;;;;;;5048654;28;20102;-37
2020/12/15 10:33:48;;;;;;;21.90;13.75;;;9.60;99.90;;;;;;5049363;28;20148;-40
2020/12/15 10:36:14;;;;;;;27.70;14.18;;;9.60;99.90;;;;;;5047213;28;20124;-37
2020/12/15 10:38:40;;;;;;;27.02;15.20;;;9.70;99.90;;;;;;5047666;28;20029;-37
2020/12/15 10:41:09;;;;;;;24.02;15.07;;;9.70;99.90;;;;;;5031554;28;20476;-39
2020/12/15 10:43:35;;;;;;;25.08;14.20;;;9.70;99.90;;;;;;5047580;28;20029;-37
2020/12/15 10:46:01;;;;;;;25.63;14.55;;;9.70;99.90;;;;;;5048628;28;20059;-37
2020/12/15 10:48:26;;;;;;;26.88;13.88;;;9.70;99.90;;;;;;5047702;28;20116;-40
2020/12/15 10:50:53;;;;;;;23.88;13.93;;;9.70;99.90;;;;;;5044821;28;20390;-37
2020/12/15 10:53:19;;;;;;;21.50;13.23;;;9.70;99.90;;;;;;5012275;28;20021;-38
2020/12/15 10:55:49;;;;;;;27.52;15.13;;;9.70;99.90;;;;;;5047361;28;20036;-37
2020/12/15 10:58:15;;;;;;;22.80;12.82;;;9.70;99.90;;;;;;5043964;28;20654;-38
2020/12/15 11:00:41;;;;;;;25.23;14.65;;;9.80;99.90;;;;;;5020894;28;20037;-37
2020/12/15 11:03:07;;;;;;;22.50;13.68;;;9.80;99.90;;;;;;5049859;28;20048;-37
2020/12/15 11:05:33;;;;;;;27.42;15.20;;;9.80;99.90;;;;;;5031064;28;20029;-37
2020/12/15 11:07:58;;;;;;;23.25;13.57;;;9.90;99.90;;;;;;5030240;28;20036;-37
2020/12/15 11:10:24;;;;;;;24.70;14.10;;;9.90;99.90;;;;;;5048398;28;20036;-38
2020/12/15 11:12:50;;;;;;;26.13;14.45;;;10.00;99.90;;;;;;5049047;28;20036;-40
2020/12/15 11:15:15;;;;;;;23.00;13.93;;;10.00;99.90;;;;;;5020214;28;20056;-40
2020/12/15 11:17:41;;;;;;;26.50;13.52;;;10.00;99.90;;;;;;5032540;28;20040;-37
2020/12/15 11:20:07;;;;;;;24.42;14.45;;;10.00;99.90;;;;;;5035852;28;20033;-37
2020/12/15 11:22:33;;;;;;;25.73;13.35;;;10.00;99.90;;;;;;5027292;28;20593;-38
2020/12/15 11:24:59;;;;;;;24.45;13.95;;;10.00;99.90;;;;;;5026857;28;20037;-40
2020/12/15 11:27:25;;;;;;;26.13;14.18;;;10.00;99.90;;;;;;5020064;28;20029;-38
2020/12/15 11:29:50;;;;;;;23.55;12.43;;;10.00;99.90;;;;;;5028278;28;20061;-37
2020/12/15 11:32:16;;;;;;;20.20;12.68;;;10.00;99.90;;;;;;5027305;28;20041;-38
2020/12/15 11:34:41;;;;;;;21.65;13.38;;;10.00;99.90;;;;;;5022692;28;20474;-37
2020/12/15 11:37:12;;;;;;;19.02;12.65;;;10.00;99.90;;;;;;5025847;28;20034;-38
2020/12/15 11:39:39;;;;;;;21.10;13.13;;;10.00;99.90;;;;;;5022723;28;20052;-38
2020/12/15 11:42:08;;;;;;;22.38;13.38;;;10.10;99.90;;;;;;5026458;28;20056;-38
2020/12/15 11:44:34;;;;;;;24.27;12.90;;;10.00;99.90;;;;;;5031022;28;20545;-39
2020/12/15 11:47:00;;;;;;;22.98;13.05;;;10.10;99.90;;;;;;5005917;28;20493;-38
2020/12/15 11:49:27;;;;;;;19.27;11.60;;;10.10;99.90;;;;;;5014785;28;20430;-38
2020/12/15 11:51:54;;;;;;;25.33;11.45;;;10.10;99.90;;;;;;5015990;28;20040;-37
2020/12/15 11:54:19;;;;;;;23.90;12.35;;;10.10;99.90;;;;;;5024951;28;20033;-38
2020/12/15 11:56:46;;;;;;;25.90;14.30;;;10.10;99.90;;;;;;5006597;28;20476;-37
2020/12/15 11:59:14;;;;;;;17.25;11.48;;;10.10;99.90;;;;;;5022296;28;20037;-36
2020/12/15 12:01:40;;;;;;;19.35;11.52;;;10.10;99.90;;;;;;5011105;28;20045;-37
2020/12/15 12:04:08;;;;;;;26.80;12.32;;;10.20;99.90;;;;;;5012531;28;20144;-37
2020/12/15 12:06:36;;;;;;;20.35;12.10;;;10.30;99.90;;;;;;5016542;28;20026;-39
2020/12/15 12:09:04;;;;;;;22.25;12.45;;;10.30;99.90;;;;;;5027688;28;20044;-40
2020/12/15 12:11:30;;;;;;;21.00;11.90;;;10.20;99.90;;;;;;5026667;28;20034;-39
2020/12/15 12:13:58;;;;;;;23.63;12.55;;;10.20;99.90;;;;;;5025436;28;20501;-37
2020/12/15 12:16:24;;;;;;;22.67;11.80;;;10.30;99.90;;;;;;5015460;28;20026;-37
2020/12/15 12:18:50;;;;;;;26.00;13.13;;;10.30;99.90;;;;;;5018152;28;20460;-37
2020/12/15 12:21:16;;;;;;;25.98;12.90;;;10.30;99.90;;;;;;5007586;28;20487;-37
2020/12/15 12:23:45;;;;;;;22.20;11.95;;;10.40;99.90;;;;;;5015854;28;20033;-36
2020/12/15 12:26:15;;;;;;;24.42;12.23;;;10.50;99.90;;;;;;5014835;28;20037;-36
2020/12/15 12:28:41;;;;;;;21.05;11.07;;;10.50;99.90;;;;;;5009723;28;20022;-36
2020/12/15 12:31:48;;;;;;;20.27;10.60;;;10.60;99.90;;;;;;5008301;28;20067;-38
2020/12/15 12:34:14;;;;;;;19.90;10.10;;;10.70;99.90;;;;;;5009641;28;20045;-36
2020/12/15 12:36:42;;;;;;;21.05;10.02;;;10.70;99.90;;;;;;5011129;28;20045;-37
2020/12/15 12:39:08;;;;;;;17.17;9.88;;;10.70;99.90;;;;;;5013313;28;20035;-37
2020/12/15 12:41:37;;;;;;;22.27;10.68;;;10.70;99.90;;;;;;5013904;28;20052;-37